Time;durP1;ratioP1;P1;durP2;ratioP2;P2;SDS_P1;SDS_P2;PMS_P1;PMS_P2;Temp;Humidity;BMP_temperature;BMP_pressure;BME280_temperature;BME280_humidity;BME280_pressure;Samples;Min_cycle;Max_cycle;Signal;HPM_P1;HPM_P2
2022/03/08 00:00:06;;;;;;;10.75;8.23;;;;;;;;;;5040829;28;20847;-80
2022/03/08 00:02:32;;;;;;;14.10;9.00;;;;;;;;;;5039499;28;20481;-80
2022/03/08 00:04:59;;;;;;;11.27;8.63;;;;;;;;;;5042893;28;20425;-80
2022/03/08 00:07:28;;;;;;;10.20;8.50;;;;;;;;;;5042621;28;20431;-81
2022/03/08 00:09:55;;;;;;;9.40;7.68;;;;;;;;;;5041281;28;20426;-80
2022/03/08 00:12:21;;;;;;;10.30;8.10;;;;;;;;;;5040242;28;20433;-80
2022/03/08 00:14:48;;;;;;;11.00;8.40;;;;;;;;;;5042947;28;20487;-79
2022/03/08 00:17:14;;;;;;;9.90;8.60;;;;;;;;;;5039492;28;20449;-80
2022/03/08 00:19:40;;;;;;;9.38;7.93;;;;;;;;;;5039708;28;20435;-79
2022/03/08 00:22:06;;;;;;;10.48;7.90;;;;;;;;;;5040890;28;20419;-79
2022/03/08 00:24:34;;;;;;;10.15;8.85;;;;;;;;;;5038548;28;20437;-79
2022/03/08 00:27:00;;;;;;;10.23;8.00;;;;;;;;;;5041240;28;21435;-80
2022/03/08 00:29:26;;;;;;;11.38;8.13;;;;;;;;;;5041051;28;20457;-79
2022/03/08 00:31:53;;;;;;;8.83;7.93;;;;;;;;;;5040238;28;20409;-80
2022/03/08 00:34:19;;;;;;;9.80;8.18;;;;;;;;;;5041103;28;20434;-80
2022/03/08 00:36:45;;;;;;;10.02;8.05;;;;;;;;;;5041038;28;20448;-80
2022/03/08 00:39:11;;;;;;;11.20;8.13;;;;;;;;;;5040710;28;20448;-80
2022/03/08 00:41:39;;;;;;;9.00;8.10;;;;;;;;;;5040728;28;20487;-80
2022/03/08 00:44:05;;;;;;;8.57;7.50;;;;;;;;;;5040868;28;20806;-79
2022/03/08 00:46:32;;;;;;;10.40;7.80;;;;;;;;;;5041888;28;20437;-80
2022/03/08 00:48:58;;;;;;;8.93;7.40;;;;;;;;;;5038714;28;20484;-80
2022/03/08 00:51:25;;;;;;;8.90;7.97;;;;;;;;;;5042629;28;20421;-78
2022/03/08 00:53:51;;;;;;;10.40;7.70;;;;;;;;;;5063775;23;20504;-83
2022/03/08 00:56:17;;;;;;;11.38;8.43;;;;;;;;;;5018641;28;20489;-85
2022/03/08 00:58:45;;;;;;;8.48;7.20;;;;;;;;;;5024300;28;20431;-85
2022/03/08 01:01:11;;;;;;;8.80;7.90;;;;;;;;;;5020673;28;20483;-83
2022/03/08 01:03:38;;;;;;;8.57;7.40;;;;;;;;;;5019313;28;20480;-86
2022/03/08 01:06:04;;;;;;;9.17;7.27;;;;;;;;;;5024015;28;20419;-85
2022/03/08 01:08:30;;;;;;;8.25;7.40;;;;;;;;;;5020926;28;20446;-85
2022/03/08 01:10:57;;;;;;;10.63;7.60;;;;;;;;;;5019428;28;20422;-85
2022/03/08 01:13:23;;;;;;;8.05;6.97;;;;;;;;;;5021946;28;20473;-87
2022/03/08 01:15:51;;;;;;;8.05;6.68;;;;;;;;;;5021979;28;20430;-84
2022/03/08 01:18:17;;;;;;;9.00;6.78;;;;;;;;;;5019640;28;20425;-84
2022/03/08 01:20:43;;;;;;;9.77;7.43;;;;;;;;;;5017464;28;20428;-84
2022/03/08 01:23:10;;;;;;;9.65;7.68;;;;;;;;;;5023703;28;20471;-83
2022/03/08 01:25:39;;;;;;;8.50;7.55;;;;;;;;;;5021017;28;20415;-83
2022/03/08 01:28:06;;;;;;;10.30;6.90;;;;;;;;;;5020893;28;20434;-84
2022/03/08 01:30:32;;;;;;;9.52;7.68;;;;;;;;;;5019455;28;20422;-84
2022/03/08 01:33:00;;;;;;;10.38;7.35;;;;;;;;;;5020154;28;20434;-84
2022/03/08 01:35:26;;;;;;;9.00;7.10;;;;;;;;;;5023308;28;20420;-84
2022/03/08 01:37:53;;;;;;;11.37;7.47;;;;;;;;;;5023641;28;20827;-87
2022/03/08 01:40:20;;;;;;;10.50;8.70;;;;;;;;;;5021433;28;20987;-85
2022/03/08 01:42:48;;;;;;;9.68;7.57;;;;;;;;;;5024224;28;20970;-84
2022/03/08 01:45:15;;;;;;;9.60;7.68;;;;;;;;;;5024587;28;20499;-86
2022/03/08 01:47:41;;;;;;;9.05;7.43;;;;;;;;;;5024973;28;20422;-85
2022/03/08 01:50:10;;;;;;;10.02;7.93;;;;;;;;;;5020777;28;20511;-85
2022/03/08 01:52:38;;;;;;;9.73;7.63;;;;;;;;;;5023894;28;20431;-86
2022/03/08 01:55:05;;;;;;;9.10;7.10;;;;;;;;;;5020702;28;20449;-86
2022/03/08 01:57:31;;;;;;;9.07;8.02;;;;;;;;;;5020163;28;20428;-86
2022/03/08 01:59:57;;;;;;;8.40;7.47;;;;;;;;;;5021550;28;20426;-86
2022/03/08 02:02:24;;;;;;;10.80;7.97;;;;;;;;;;5020378;28;20956;-87
2022/03/08 02:04:50;;;;;;;8.17;7.03;;;;;;;;;;5025235;28;20944;-85
2022/03/08 02:07:18;;;;;;;8.57;7.50;;;;;;;;;;5021257;28;20816;-84
2022/03/08 02:09:45;;;;;;;8.65;7.45;;;;;;;;;;5021862;28;20473;-83
2022/03/08 02:12:11;;;;;;;8.75;7.57;;;;;;;;;;5021419;28;20446;-85
2022/03/08 02:14:38;;;;;;;8.27;6.90;;;;;;;;;;5020436;28;20429;-85
2022/03/08 02:17:04;;;;;;;10.70;7.90;;;;;;;;;;5023201;28;20465;-86
2022/03/08 02:19:30;;;;;;;9.83;7.60;;;;;;;;;;5020997;28;20997;-86
2022/03/08 02:21:58;;;;;;;8.70;7.60;;;;;;;;;;5021064;28;20793;-86
2022/03/08 02:24:24;;;;;;;10.75;8.32;;;;;;;;;;5018486;28;20407;-84
2022/03/08 02:26:51;;;;;;;8.35;7.47;;;;;;;;;;5020342;28;20407;-85
2022/03/08 02:29:17;;;;;;;8.13;7.03;;;;;;;;;;5022127;28;20430;-84
2022/03/08 02:31:43;;;;;;;9.40;7.77;;;;;;;;;;5020859;28;20427;-86
2022/03/08 02:34:10;;;;;;;9.88;7.75;;;;;;;;;;5024339;28;20783;-85
2022/03/08 02:36:36;;;;;;;9.73;7.38;;;;;;;;;;5022903;28;20422;-86
2022/03/08 02:39:04;;;;;;;9.60;7.72;;;;;;;;;;5020822;28;20793;-85
2022/03/08 02:41:30;;;;;;;9.10;7.30;;;;;;;;;;5023401;28;20420;-86
2022/03/08 02:43:56;;;;;;;10.20;7.77;;;;;;;;;;5022883;28;20575;-84
2022/03/08 02:46:22;;;;;;;8.73;7.53;;;;;;;;;;5016726;28;20425;-84
2022/03/08 02:48:49;;;;;;;8.80;7.80;;;;;;;;;;5019750;28;20479;-84
2022/03/08 02:51:17;;;;;;;9.18;7.50;;;;;;;;;;5023666;28;20445;-84
2022/03/08 02:53:43;;;;;;;8.80;7.90;;;;;;;;;;5023670;28;20428;-84
2022/03/08 02:56:11;;;;;;;9.68;8.30;;;;;;;;;;5023668;28;20415;-85
2022/03/08 02:58:37;;;;;;;10.02;8.20;;;;;;;;;;5019670;28;21002;-86
2022/03/08 03:01:04;;;;;;;9.60;8.30;;;;;;;;;;5023456;28;20496;-87
2022/03/08 03:03:30;;;;;;;12.65;9.18;;;;;;;;;;5021648;28;20455;-85
2022/03/08 03:05:56;;;;;;;9.40;8.40;;;;;;;;;;5021710;28;20518;-86
2022/03/08 03:08:22;;;;;;;12.13;9.50;;;;;;;;;;5018704;28;20516;-83
2022/03/08 03:10:49;;;;;;;11.35;8.68;;;;;;;;;;5020737;28;20922;-86
2022/03/08 03:13:16;;;;;;;10.90;8.53;;;;;;;;;;5022681;28;20857;-87
2022/03/08 03:15:42;;;;;;;9.70;8.40;;;;;;;;;;5022237;28;20421;-85
2022/03/08 03:18:10;;;;;;;13.65;9.00;;;;;;;;;;5022077;28;20425;-87
2022/03/08 03:20:36;;;;;;;10.93;9.80;;;;;;;;;;5017279;28;20910;-86
2022/03/08 03:23:02;;;;;;;10.80;8.93;;;;;;;;;;5024377;28;20716;-86
2022/03/08 03:25:28;;;;;;;10.95;9.23;;;;;;;;;;5024108;28;20494;-85
2022/03/08 03:27:55;;;;;;;12.45;8.80;;;;;;;;;;5023458;28;20467;-85
2022/03/08 03:30:22;;;;;;;10.52;9.45;;;;;;;;;;5017868;28;20415;-85
2022/03/08 03:32:48;;;;;;;11.10;9.43;;;;;;;;;;5019205;28;20436;-86
2022/03/08 03:35:15;;;;;;;11.43;9.48;;;;;;;;;;5022248;28;20473;-85
2022/03/08 03:37:41;;;;;;;11.45;9.68;;;;;;;;;;5018331;28;20419;-85
2022/03/08 03:40:08;;;;;;;11.38;8.80;;;;;;;;;;5024399;28;20917;-86
2022/03/08 03:42:35;;;;;;;10.80;9.33;;;;;;;;;;5023820;28;20411;-87
2022/03/08 03:45:01;;;;;;;10.98;9.45;;;;;;;;;;5026863;28;20424;-84
2022/03/08 03:47:29;;;;;;;12.13;9.38;;;;;;;;;;5023943;28;20427;-85
2022/03/08 03:49:55;;;;;;;11.68;10.20;;;;;;;;;;5021259;28;20529;-84
2022/03/08 03:52:22;;;;;;;10.80;9.20;;;;;;;;;;5021823;28;20795;-85
2022/03/08 03:54:48;;;;;;;13.77;10.40;;;;;;;;;;5021896;28;20427;-84
2022/03/08 03:57:14;;;;;;;13.02;9.60;;;;;;;;;;5021191;28;20936;-84
2022/03/08 03:59:41;;;;;;;13.13;10.10;;;;;;;;;;5022555;28;20836;-85
2022/03/08 04:02:07;;;;;;;12.38;9.50;;;;;;;;;;5018847;28;20942;-85
2022/03/08 04:04:35;;;;;;;13.00;10.40;;;;;;;;;;5022231;28;20491;-85
2022/03/08 04:07:01;;;;;;;11.70;9.40;;;;;;;;;;5021141;28;20415;-86
2022/03/08 04:09:27;;;;;;;11.63;9.70;;;;;;;;;;5017480;28;20440;-85
2022/03/08 04:11:53;;;;;;;12.10;9.85;;;;;;;;;;5022200;28;20428;-85
2022/03/08 04:14:20;;;;;;;12.57;9.70;;;;;;;;;;5023016;28;20423;-85
2022/03/08 04:16:46;;;;;;;13.15;10.15;;;;;;;;;;5021829;28;20914;-85
2022/03/08 04:19:12;;;;;;;12.07;9.63;;;;;;;;;;5022325;28;20424;-83
2022/03/08 04:21:40;;;;;;;10.93;9.57;;;;;;;;;;5023328;28;21007;-85
2022/03/08 04:24:06;;;;;;;12.70;10.07;;;;;;;;;;5020393;28;20504;-86
2022/03/08 04:26:32;;;;;;;12.50;9.60;;;;;;;;;;5019514;28;20440;-85
2022/03/08 04:28:59;;;;;;;11.77;9.68;;;;;;;;;;5019231;28;20435;-84
2022/03/08 04:31:25;;;;;;;13.93;10.73;;;;;;;;;;5024165;28;20422;-84
2022/03/08 04:33:52;;;;;;;13.05;9.82;;;;;;;;;;5020108;28;20419;-84
2022/03/08 04:36:18;;;;;;;12.98;10.07;;;;;;;;;;5024789;28;20435;-85
2022/03/08 04:38:45;;;;;;;13.57;10.00;;;;;;;;;;5023090;28;20857;-85
2022/03/08 04:41:12;;;;;;;12.60;9.65;;;;;;;;;;5023536;28;20423;-87
2022/03/08 04:43:38;;;;;;;13.85;10.32;;;;;;;;;;5023297;28;20430;-84
2022/03/08 04:46:04;;;;;;;13.03;10.40;;;;;;;;;;5022648;28;20515;-85
2022/03/08 04:48:30;;;;;;;12.10;10.43;;;;;;;;;;5021726;28;20936;-87
2022/03/08 04:50:57;;;;;;;15.48;11.18;;;;;;;;;;5020970;28;20821;-84
2022/03/08 04:53:23;;;;;;;15.87;11.10;;;;;;;;;;5020676;28;20503;-86
2022/03/08 04:55:51;;;;;;;12.68;10.80;;;;;;;;;;5019916;28;20460;-84
2022/03/08 04:58:17;;;;;;;12.18;10.18;;;;;;;;;;5019022;28;20999;-85
2022/03/08 05:00:43;;;;;;;15.75;11.00;;;;;;;;;;5021705;28;20918;-83
2022/03/08 05:03:09;;;;;;;15.43;12.00;;;;;;;;;;5024481;28;20445;-84
2022/03/08 05:05:38;;;;;;;14.80;12.10;;;;;;;;;;5025878;28;20413;-84
2022/03/08 05:08:04;;;;;;;17.90;12.10;;;;;;;;;;5024182;28;21167;-84
2022/03/08 05:10:30;;;;;;;16.33;12.55;;;;;;;;;;5023727;28;20433;-84
2022/03/08 05:12:59;;;;;;;15.45;11.00;;;;;;;;;;5021705;28;20411;-86
2022/03/08 05:15:26;;;;;;;14.85;11.60;;;;;;;;;;5021635;28;20417;-88
2022/03/08 05:17:52;;;;;;;16.60;11.77;;;;;;;;;;5022905;28;20493;-86
2022/03/08 05:20:18;;;;;;;14.13;11.27;;;;;;;;;;5024825;28;20423;-85
2022/03/08 05:22:45;;;;;;;15.07;11.63;;;;;;;;;;5026227;28;20415;-85
2022/03/08 05:25:11;;;;;;;16.60;11.80;;;;;;;;;;5027675;28;20440;-86
2022/03/08 05:27:37;;;;;;;15.50;12.20;;;;;;;;;;5025304;28;20994;-86
2022/03/08 05:30:06;;;;;;;12.75;11.00;;;;;;;;;;5019905;28;20499;-87
2022/03/08 05:32:32;;;;;;;16.92;12.40;;;;;;;;;;5022100;28;20469;-87
2022/03/08 05:34:58;;;;;;;14.43;11.55;;;;;;;;;;5021155;28;20479;-84
2022/03/08 05:37:25;;;;;;;15.68;12.70;;;;;;;;;;5018136;28;20422;-85
2022/03/08 05:39:52;;;;;;;17.65;12.95;;;;;;;;;;5021594;28;20426;-87
2022/03/08 05:42:18;;;;;;;14.90;11.35;;;;;;;;;;5017384;28;20440;-86
2022/03/08 05:44:44;;;;;;;13.95;10.52;;;;;;;;;;5021271;28;20657;-84
2022/03/08 05:47:12;;;;;;;15.07;11.70;;;;;;;;;;5018807;28;20420;-84
2022/03/08 05:49:38;;;;;;;13.43;11.02;;;;;;;;;;5024218;28;20433;-84
2022/03/08 05:52:05;;;;;;;18.20;12.13;;;;;;;;;;5021949;28;20427;-85
2022/03/08 05:54:31;;;;;;;14.60;11.40;;;;;;;;;;5024565;28;20422;-86
2022/03/08 05:56:57;;;;;;;16.42;11.02;;;;;;;;;;5021684;28;21009;-86
2022/03/08 05:59:24;;;;;;;14.05;11.75;;;;;;;;;;5022318;28;20547;-86
2022/03/08 06:01:50;;;;;;;14.80;11.38;;;;;;;;;;5018720;28;20861;-86
2022/03/08 06:04:17;;;;;;;14.55;12.18;;;;;;;;;;5023011;28;20444;-87
2022/03/08 06:06:44;;;;;;;14.35;11.40;;;;;;;;;;5019345;28;20810;-85
2022/03/08 06:09:10;;;;;;;14.02;10.95;;;;;;;;;;5021815;28;21087;-85
2022/03/08 06:11:36;;;;;;;16.73;12.68;;;;;;;;;;5023287;28;20820;-87
2022/03/08 06:14:03;;;;;;;14.90;11.60;;;;;;;;;;5026996;28;20868;-85
2022/03/08 06:16:29;;;;;;;16.63;12.63;;;;;;;;;;5027318;28;20793;-86
2022/03/08 06:18:56;;;;;;;14.70;11.38;;;;;;;;;;5021953;28;20423;-86
2022/03/08 06:21:24;;;;;;;16.33;12.15;;;;;;;;;;5023462;28;20518;-87
2022/03/08 06:23:50;;;;;;;17.15;12.77;;;;;;;;;;5024389;28;20423;-86
2022/03/08 06:26:16;;;;;;;17.90;12.30;;;;;;;;;;5030310;28;20490;-87
2022/03/08 06:28:43;;;;;;;15.35;11.90;;;;;;;;;;5027672;28;20498;-86
2022/03/08 06:31:09;;;;;;;14.75;11.77;;;;;;;;;;5025717;28;20472;-87
2022/03/08 06:33:35;;;;;;;17.20;11.40;;;;;;;;;;5025049;28;20427;-86
2022/03/08 06:36:01;;;;;;;14.70;11.68;;;;;;;;;;5025289;28;20846;-87
2022/03/08 06:38:29;;;;;;;15.32;11.80;;;;;;;;;;5022004;28;20994;-87
2022/03/08 06:40:56;;;;;;;15.38;11.63;;;;;;;;;;5025394;28;20815;-87
2022/03/08 06:43:22;;;;;;;17.63;11.90;;;;;;;;;;5025271;28;20430;-86
2022/03/08 06:45:48;;;;;;;15.98;11.60;;;;;;;;;;5025061;28;20415;-86
2022/03/08 06:48:15;;;;;;;16.60;12.40;;;;;;;;;;5026601;28;20417;-85
2022/03/08 06:50:41;;;;;;;14.25;11.07;;;;;;;;;;5029268;28;20498;-85
2022/03/08 06:53:07;;;;;;;17.85;12.68;;;;;;;;;;5019824;28;20483;-84
2022/03/08 06:55:36;;;;;;;18.05;12.18;;;;;;;;;;5044202;23;20438;-82
2022/03/08 06:58:02;;;;;;;16.25;11.52;;;;;;;;;;5043649;28;20491;-82
2022/03/08 07:00:29;;;;;;;15.43;11.80;;;;;;;;;;5046041;28;20421;-82
2022/03/08 07:02:56;;;;;;;15.43;12.00;;;;;;;;;;5043794;28;20426;-82
2022/03/08 07:05:22;;;;;;;15.73;11.15;;;;;;;;;;5045602;28;20424;-82
2022/03/08 07:07:48;;;;;;;15.20;11.23;;;;;;;;;;5045178;28;20429;-82
2022/03/08 07:10:14;;;;;;;16.63;12.32;;;;;;;;;;5045364;28;20427;-82
2022/03/08 07:12:42;;;;;;;16.27;12.65;;;;;;;;;;5040549;28;20423;-81
2022/03/08 07:15:08;;;;;;;20.17;12.70;;;;;;;;;;5045531;28;20415;-83
2022/03/08 07:17:34;;;;;;;16.20;12.00;;;;;;;;;;5043800;28;20422;-82
2022/03/08 07:20:01;;;;;;;18.60;12.73;;;;;;;;;;5041592;28;20419;-81
2022/03/08 07:22:27;;;;;;;17.60;12.57;;;;;;;;;;5046814;28;20510;-82
2022/03/08 07:24:54;;;;;;;19.75;12.40;;;;;;;;;;5046484;28;20431;-81
2022/03/08 07:27:20;;;;;;;16.37;12.20;;;;;;;;;;5046640;28;20424;-83
2022/03/08 07:29:48;;;;;;;17.23;12.50;;;;;;;;;;5044516;28;20493;-82
2022/03/08 07:32:15;;;;;;;16.73;12.35;;;;;;;;;;5043121;28;20423;-83
2022/03/08 07:34:41;;;;;;;17.70;12.05;;;;;;;;;;5048241;28;20421;-82
2022/03/08 07:37:08;;;;;;;17.35;11.70;;;;;;;;;;5046089;28;20481;-82
2022/03/08 07:39:34;;;;;;;17.23;11.80;;;;;;;;;;5044932;28;20419;-82
2022/03/08 07:42:00;;;;;;;16.33;11.77;;;;;;;;;;5042139;28;20422;-83
2022/03/08 07:44:26;;;;;;;15.93;11.30;;;;;;;;;;5048771;28;20429;-82
2022/03/08 07:46:55;;;;;;;15.95;11.00;;;;;;;;;;5045815;28;20461;-83
2022/03/08 07:49:21;;;;;;;16.10;11.30;;;;;;;;;;5043244;28;20439;-82
2022/03/08 07:51:48;;;;;;;14.65;10.45;;;;;;;;;;5042211;28;20430;-84
2022/03/08 07:54:14;;;;;;;13.85;11.18;;;;;;;;;;5046123;28;20413;-82
2022/03/08 07:56:40;;;;;;;14.75;10.60;;;;;;;;;;5042169;28;20835;-83
2022/03/08 07:59:07;;;;;;;15.13;11.23;;;;;;;;;;5043833;28;20464;-82
2022/03/08 08:01:33;;;;;;;15.57;10.70;;;;;;;;;;5044400;28;20476;-82
2022/03/08 08:04:00;;;;;;;16.33;11.75;;;;;;;;;;5045565;28;20438;-82
2022/03/08 08:06:27;;;;;;;16.48;11.00;;;;;;;;;;5044390;28;20421;-82
2022/03/08 08:08:53;;;;;;;17.17;11.77;;;;;;;;;;5040546;28;20431;-82
2022/03/08 08:11:20;;;;;;;15.48;10.85;;;;;;;;;;5045674;28;20409;-82
2022/03/08 08:13:48;;;;;;;15.85;10.80;;;;;;;;;;5043864;28;20423;-83
2022/03/08 08:16:14;;;;;;;17.80;11.50;;;;;;;;;;5045783;28;20450;-82
2022/03/08 08:18:40;;;;;;;18.20;12.10;;;;;;;;;;5043315;28;20415;-82
2022/03/08 08:21:08;;;;;;;20.05;10.90;;;;;;;;;;5044626;28;20418;-82
2022/03/08 08:23:34;;;;;;;18.60;11.40;;;;;;;;;;5043830;28;20432;-81
2022/03/08 08:26:01;;;;;;;20.25;11.35;;;;;;;;;;5042860;28;20426;-82
2022/03/08 08:28:27;;;;;;;15.25;11.40;;;;;;;;;;5042075;28;20475;-83
2022/03/08 08:30:54;;;;;;;18.70;11.60;;;;;;;;;;5043138;28;20990;-82
2022/03/08 08:33:20;;;;;;;18.02;11.93;;;;;;;;;;5044367;28;20921;-83
2022/03/08 08:35:46;;;;;;;16.65;11.02;;;;;;;;;;5045127;28;20906;-82
2022/03/08 08:38:14;;;;;;;18.02;10.90;;;;;;;;;;5043892;28;20422;-82
2022/03/08 08:40:40;;;;;;;16.88;11.63;;;;;;;;;;5042525;28;20483;-82
2022/03/08 08:43:08;;;;;;;13.30;10.23;;;;;;;;;;5040933;28;20415;-83
2022/03/08 08:45:35;;;;;;;16.58;11.02;;;;;;;;;;5045265;28;20799;-83
2022/03/08 08:48:02;;;;;;;15.13;10.63;;;;;;;;;;5044051;28;20430;-82
2022/03/08 08:50:29;;;;;;;15.60;10.77;;;;;;;;;;5042170;28;20434;-83
2022/03/08 08:52:55;;;;;;;18.30;10.60;;;;;;;;;;5041856;28;20426;-82
2022/03/08 08:55:23;;;;;;;17.77;10.50;;;;;;;;;;5044202;28;20425;-83
2022/03/08 08:57:49;;;;;;;15.13;10.25;;;;;;;;;;5041225;28;20417;-82
2022/03/08 09:00:16;;;;;;;16.13;10.25;;;;;;;;;;5040768;28;20431;-82
2022/03/08 09:02:43;;;;;;;15.75;10.25;;;;;;;;;;5043552;28;20471;-81
2022/03/08 09:05:10;;;;;;;17.33;10.15;;;;;;;;;;5043275;28;20421;-83
2022/03/08 09:07:36;;;;;;;16.17;9.90;;;;;;;;;;5043200;28;21129;-82
2022/03/08 09:10:03;;;;;;;15.52;9.75;;;;;;;;;;5041967;28;20447;-82
2022/03/08 09:12:30;;;;;;;13.90;9.40;;;;;;;;;;5041911;28;20421;-82
2022/03/08 09:14:56;;;;;;;13.98;10.25;;;;;;;;;;5042348;28;20421;-84
2022/03/08 09:17:23;;;;;;;13.40;9.65;;;;;;;;;;5041537;28;20417;-83
2022/03/08 09:19:49;;;;;;;15.15;11.07;;;;;;;;;;5043083;28;20438;-83
2022/03/08 09:22:15;;;;;;;13.90;9.65;;;;;;;;;;5043450;28;20472;-83
2022/03/08 09:24:42;;;;;;;15.70;9.57;;;;;;;;;;5042834;28;20418;-84
2022/03/08 09:27:08;;;;;;;13.88;9.60;;;;;;;;;;5042477;28;20983;-83
2022/03/08 09:29:36;;;;;;;12.95;9.15;;;;;;;;;;5043051;28;20462;-83
2022/03/08 09:32:02;;;;;;;17.25;9.65;;;;;;;;;;5043374;28;20417;-82
2022/03/08 09:34:28;;;;;;;17.75;10.18;;;;;;;;;;5041860;28;20495;-82
2022/03/08 09:36:55;;;;;;;16.08;9.75;;;;;;;;;;5042841;28;20417;-83
2022/03/08 09:39:21;;;;;;;15.93;9.57;;;;;;;;;;5040082;28;20804;-82
2022/03/08 09:41:51;;;;;;;12.38;8.63;;;;;;;;;;5042972;28;20413;-82
2022/03/08 09:44:18;;;;;;;12.93;8.10;;;;;;;;;;5044310;28;20421;-83
2022/03/08 09:46:46;;;;;;;15.02;10.10;;;;;;;;;;5043373;28;20431;-83
2022/03/08 09:49:12;;;;;;;18.85;8.57;;;;;;;;;;5040681;28;20456;-83
2022/03/08 09:51:39;;;;;;;15.98;8.90;;;;;;;;;;5042708;28;20415;-83
2022/03/08 09:54:05;;;;;;;18.02;8.65;;;;;;;;;;5043703;28;20415;-83
2022/03/08 09:56:32;;;;;;;12.40;8.33;;;;;;;;;;5041459;28;20449;-83
2022/03/08 09:58:59;;;;;;;12.13;7.45;;;;;;;;;;5040798;28;20469;-83
2022/03/08 10:01:25;;;;;;;11.75;7.65;;;;;;;;;;5043763;28;20410;-84
2022/03/08 10:03:53;;;;;;;10.50;7.50;;;;;;;;;;5044143;28;20415;-82
2022/03/08 10:06:19;;;;;;;12.60;7.60;;;;;;;;;;5042942;28;20417;-83
2022/03/08 10:08:45;;;;;;;11.77;6.32;;;;;;;;;;5041349;28;21014;-82
2022/03/08 10:11:14;;;;;;;11.73;6.60;;;;;;;;;;5042883;28;20431;-83
2022/03/08 10:13:43;;;;;;;14.40;5.70;;;;;;;;;;5041246;28;20583;-82
2022/03/08 10:16:10;;;;;;;8.70;5.60;;;;;;;;;;5043999;28;20883;-83
2022/03/08 10:18:37;;;;;;;9.90;5.85;;;;;;;;;;5041700;28;20495;-84
2022/03/08 10:21:05;;;;;;;7.72;5.90;;;;;;;;;;5043378;28;20963;-83
2022/03/08 10:23:39;;;;;;;10.13;5.68;;;;;;;;;;5042092;28;20427;-81
2022/03/08 10:26:05;;;;;;;10.20;6.18;;;;;;;;;;5043469;28;20449;-81
2022/03/08 10:28:32;;;;;;;9.63;5.90;;;;;;;;;;5042152;28;20421;-80
2022/03/08 10:30:58;;;;;;;15.13;5.90;;;;;;;;;;5043981;28;20561;-80
2022/03/08 10:33:33;;;;;;;7.78;5.22;;;;;;;;;;5045478;28;20459;-81
2022/03/08 10:35:59;;;;;;;7.25;6.10;;;;;;;;;;5043299;28;20914;-81
2022/03/08 10:38:27;;;;;;;8.20;5.30;;;;;;;;;;5043388;28;20415;-81
2022/03/08 10:40:53;;;;;;;7.57;4.40;;;;;;;;;;5041686;28;20453;-80
2022/03/08 10:43:20;;;;;;;6.30;4.50;;;;;;;;;;5042715;28;20422;-81
2022/03/08 10:45:47;;;;;;;7.67;4.80;;;;;;;;;;5045130;28;20451;-80
2022/03/08 10:48:14;;;;;;;8.00;4.63;;;;;;;;;;5041716;28;20430;-80
2022/03/08 10:50:41;;;;;;;6.45;3.83;;;;;;;;;;5042337;28;20431;-81
2022/03/08 10:53:08;;;;;;;4.90;3.70;;;;;;;;;;5044059;28;20419;-81
2022/03/08 10:55:37;;;;;;;7.17;3.80;;;;;;;;;;5042916;28;20455;-81
2022/03/08 10:58:04;;;;;;;4.28;3.45;;;;;;;;;;5042110;28;20475;-81
2022/03/08 11:00:31;;;;;;;4.38;2.60;;;;;;;;;;5043648;28;20509;-82
2022/03/08 11:02:58;;;;;;;3.72;2.33;;;;;;;;;;5044315;28;20475;-82
2022/03/08 11:05:26;;;;;;;3.70;2.10;;;;;;;;;;5041067;28;20429;-82
2022/03/08 11:07:53;;;;;;;6.38;3.13;;;;;;;;;;5042063;28;20421;-81
2022/03/08 11:10:20;;;;;;;5.35;3.30;;;;;;;;;;5040677;28;20919;-82
2022/03/08 11:12:48;;;;;;;4.50;2.97;;;;;;;;;;5043915;28;20427;-81
2022/03/08 11:15:15;;;;;;;6.38;3.35;;;;;;;;;;5046423;28;20430;-81
2022/03/08 11:17:44;;;;;;;6.55;3.50;;;;;;;;;;5044153;28;21003;-81
2022/03/08 11:20:11;;;;;;;4.25;2.90;;;;;;;;;;5041786;28;20417;-81
2022/03/08 11:22:38;;;;;;;7.50;3.30;;;;;;;;;;5043206;28;20421;-81
2022/03/08 11:25:05;;;;;;;6.35;3.55;;;;;;;;;;5044166;28;20422;-81
2022/03/08 11:27:32;;;;;;;5.25;3.10;;;;;;;;;;5043857;28;20834;-81
2022/03/08 11:30:00;;;;;;;5.20;2.70;;;;;;;;;;5043728;28;20947;-81
2022/03/08 11:32:30;;;;;;;4.30;2.78;;;;;;;;;;5044868;28;20426;-82
2022/03/08 11:35:00;;;;;;;4.18;3.05;;;;;;;;;;5044239;28;20438;-81
2022/03/08 11:37:27;;;;;;;3.60;2.50;;;;;;;;;;5044888;28;20446;-81
2022/03/08 11:40:06;;;;;;;5.28;2.60;;;;;;;;;;5043841;28;20414;-80
2022/03/08 11:42:34;;;;;;;3.53;2.50;;;;;;;;;;5040572;28;20453;-82
2022/03/08 11:45:03;;;;;;;3.30;2.50;;;;;;;;;;5043716;28;20987;-81
2022/03/08 11:47:37;;;;;;;4.40;3.10;;;;;;;;;;5043189;28;20413;-81
2022/03/08 11:50:04;;;;;;;2.58;2.38;;;;;;;;;;5043544;28;20501;-81
2022/03/08 11:52:31;;;;;;;4.53;3.20;;;;;;;;;;5045376;28;20476;-82
2022/03/08 11:54:59;;;;;;;4.93;2.77;;;;;;;;;;5043712;28;20931;-82
2022/03/08 11:57:43;;;;;;;4.30;3.10;;;;;;;;;;5045580;28;20798;-81
2022/03/08 12:00:17;;;;;;;5.03;3.38;;;;;;;;;;5042496;28;20431;-82
2022/03/08 12:02:44;;;;;;;7.90;3.43;;;;;;;;;;5043889;28;20418;-80
2022/03/08 12:05:39;;;;;;;4.30;3.05;;;;;;;;;;5045354;28;20849;-81
2022/03/08 12:08:39;;;;;;;4.47;2.83;;;;;;;;;;5043292;28;20423;-81
2022/03/08 12:11:07;;;;;;;10.60;3.90;;;;;;;;;;4945679;28;21022;-81
2022/03/08 12:13:35;;;;;;;6.72;3.60;;;;;;;;;;4944843;28;20453;-81
2022/03/08 12:16:23;;;;;;;4.85;3.38;;;;;;;;;;4990827;28;20481;-82
2022/03/08 12:18:51;;;;;;;4.20;2.92;;;;;;;;;;5042787;28;20421;-82
2022/03/08 12:21:31;;;;;;;4.60;3.28;;;;;;;;;;5043625;28;20433;-81
2022/03/08 12:23:59;;;;;;;5.50;3.40;;;;;;;;;;5042523;28;20435;-81
2022/03/08 12:26:26;;;;;;;4.90;3.40;;;;;;;;;;5043683;28;20853;-81
2022/03/08 12:29:05;;;;;;;9.15;3.50;;;;;;;;;;5041220;28;20847;-81
2022/03/08 12:31:33;;;;;;;4.93;3.20;;;;;;;;;;5042507;28;20485;-82
2022/03/08 12:34:00;;;;;;;3.67;2.70;;;;;;;;;;5042246;28;21028;-82
2022/03/08 12:36:27;;;;;;;3.42;2.65;;;;;;;;;;5044499;28;20848;-82
2022/03/08 12:38:53;;;;;;;4.07;2.90;;;;;;;;;;5039800;28;20479;-81
2022/03/08 12:41:24;;;;;;;5.63;2.95;;;;;;;;;;5040430;28;20421;-82
2022/03/08 12:43:56;;;;;;;4.80;3.00;;;;;;;;;;5041697;28;20425;-82
2022/03/08 12:46:22;;;;;;;4.70;2.38;;;;;;;;;;5044021;28;20429;-82
2022/03/08 12:48:52;;;;;;;3.20;2.60;;;;;;;;;;5042402;28;20419;-82
2022/03/08 12:51:19;;;;;;;3.40;2.58;;;;;;;;;;5042747;28;20473;-81
2022/03/08 12:53:45;;;;;;;3.85;2.30;;;;;;;;;;5042723;28;20829;-81
2022/03/08 12:56:12;;;;;;;3.13;2.60;;;;;;;;;;5064285;22;20443;-82
2022/03/08 12:58:39;;;;;;;7.30;2.60;;;;;;;;;;5062058;28;20420;-81
2022/03/08 13:01:06;;;;;;;4.78;2.53;;;;;;;;;;5063682;28;20459;-82
2022/03/08 13:03:33;;;;;;;3.75;2.50;;;;;;;;;;5061565;28;20417;-82
2022/03/08 13:06:01;;;;;;;3.90;3.00;;;;;;;;;;5064483;28;20408;-82
2022/03/08 13:08:29;;;;;;;4.65;2.90;;;;;;;;;;5061044;28;20428;-82
2022/03/08 13:10:56;;;;;;;5.10;2.30;;;;;;;;;;5062738;28;20578;-82
2022/03/08 13:13:23;;;;;;;2.75;2.20;;;;;;;;;;5061181;28;20479;-82
2022/03/08 13:15:49;;;;;;;3.10;2.40;;;;;;;;;;5062257;28;20425;-81
2022/03/08 13:18:20;;;;;;;2.33;2.10;;;;;;;;;;5059580;28;20475;-82
2022/03/08 13:20:48;;;;;;;4.68;2.40;;;;;;;;;;5061067;28;20416;-81
2022/03/08 13:23:17;;;;;;;6.35;2.28;;;;;;;;;;5060888;28;20481;-82
2022/03/08 13:25:44;;;;;;;5.05;2.38;;;;;;;;;;5059983;28;20796;-81
2022/03/08 13:28:11;;;;;;;4.63;2.20;;;;;;;;;;5061221;28;20419;-82
2022/03/08 13:30:38;;;;;;;3.50;2.53;;;;;;;;;;5060972;28;21031;-83
2022/03/08 13:33:25;;;;;;;7.37;2.17;;;;;;;;;;5061269;28;20537;-82
2022/03/08 13:35:53;;;;;;;5.55;2.78;;;;;;;;;;5063019;28;20407;-82
2022/03/08 13:38:21;;;;;;;2.85;2.38;;;;;;;;;;5060092;28;20487;-81
2022/03/08 13:40:48;;;;;;;3.88;2.33;;;;;;;;;;5060146;28;20432;-82
2022/03/08 13:43:14;;;;;;;3.75;2.42;;;;;;;;;;5060245;28;20830;-81
2022/03/08 13:45:41;;;;;;;4.10;2.40;;;;;;;;;;5063628;28;20414;-81
2022/03/08 13:48:08;;;;;;;3.90;2.60;;;;;;;;;;5059985;28;20421;-82
2022/03/08 13:50:35;;;;;;;4.38;2.70;;;;;;;;;;5060105;28;20498;-81
2022/03/08 13:53:05;;;;;;;3.17;2.67;;;;;;;;;;5060665;28;20479;-82
2022/03/08 13:55:33;;;;;;;3.13;2.60;;;;;;;;;;5063025;28;20409;-82
2022/03/08 13:58:01;;;;;;;2.65;2.40;;;;;;;;;;5062230;28;20453;-80
2022/03/08 14:00:28;;;;;;;5.00;3.15;;;;;;;;;;5064195;28;20984;-81
2022/03/08 14:02:55;;;;;;;3.65;2.30;;;;;;;;;;5061997;28;20425;-81
2022/03/08 14:05:22;;;;;;;5.60;2.80;;;;;;;;;;5063777;28;20451;-81
2022/03/08 14:07:58;;;;;;;3.45;2.50;;;;;;;;;;5062310;28;20954;-81
2022/03/08 14:10:25;;;;;;;4.65;2.60;;;;;;;;;;5066340;28;20418;-81
2022/03/08 14:12:52;;;;;;;3.80;2.80;;;;;;;;;;5064005;28;20414;-82
2022/03/08 14:15:19;;;;;;;3.83;2.22;;;;;;;;;;5063650;28;20486;-82
2022/03/08 14:17:45;;;;;;;6.78;2.22;;;;;;;;;;5063536;28;20424;-82
2022/03/08 14:20:15;;;;;;;3.22;2.42;;;;;;;;;;5063235;28;20477;-82
2022/03/08 14:23:09;;;;;;;4.28;3.10;;;;;;;;;;5064714;28;20485;-83
2022/03/08 14:25:35;;;;;;;2.80;2.40;;;;;;;;;;5023257;28;20506;-82
2022/03/08 14:28:03;;;;;;;5.07;2.70;;;;;;;;;;5065421;28;20502;-82
2022/03/08 14:30:29;;;;;;;3.70;2.70;;;;;;;;;;5065790;28;20418;-82